sensor_id;sensor_type;location;lat;lon;timestamp;P1;durP1;ratioP1;P2;durP2;ratioP2
15679;SDS011;15488;48.114;11.532;2022-07-23T00:01:34;6.30;;;5.80;;
15679;SDS011;15488;48.114;11.532;2022-07-23T00:04:02;7.75;;;7.05;;
15679;SDS011;15488;48.114;11.532;2022-07-23T00:06:29;7.60;;;6.93;;
15679;SDS011;15488;48.114;11.532;2022-07-23T00:08:57;7.10;;;6.50;;
15679;SDS011;15488;48.114;11.532;2022-07-23T00:11:24;7.88;;;7.07;;
15679;SDS011;15488;48.114;11.532;2022-07-23T00:13:54;6.87;;;6.27;;
15679;SDS011;15488;48.114;11.532;2022-07-23T00:16:24;7.38;;;6.68;;
15679;SDS011;15488;48.114;11.532;2022-07-23T00:18:51;7.97;;;7.17;;
15679;SDS011;15488;48.114;11.532;2022-07-23T00:21:19;7.23;;;6.63;;
15679;SDS011;15488;48.114;11.532;2022-07-23T00:23:46;6.90;;;6.22;;
15679;SDS011;15488;48.114;11.532;2022-07-23T00:26:14;6.83;;;6.17;;
15679;SDS011;15488;48.114;11.532;2022-07-23T00:28:41;6.28;;;5.78;;
15679;SDS011;15488;48.114;11.532;2022-07-23T00:31:08;6.40;;;5.80;;
15679;SDS011;15488;48.114;11.532;2022-07-23T00:33:37;7.00;;;6.40;;
15679;SDS011;15488;48.114;11.532;2022-07-23T00:36:05;6.32;;;5.72;;
15679;SDS011;15488;48.114;11.532;2022-07-23T00:38:33;6.70;;;6.20;;
15679;SDS011;15488;48.114;11.532;2022-07-23T00:41:00;7.30;;;6.67;;
15679;SDS011;15488;48.114;11.532;2022-07-23T00:43:28;6.68;;;6.07;;
15679;SDS011;15488;48.114;11.532;2022-07-23T00:45:55;6.93;;;6.32;;
15679;SDS011;15488;48.114;11.532;2022-07-23T00:48:23;7.07;;;6.47;;
15679;SDS011;15488;48.114;11.532;2022-07-23T00:50:51;6.68;;;6.13;;
15679;SDS011;15488;48.114;11.532;2022-07-23T00:53:19;6.80;;;6.20;;
15679;SDS011;15488;48.114;11.532;2022-07-23T00:55:47;7.40;;;6.70;;
15679;SDS011;15488;48.114;11.532;2022-07-23T00:58:15;7.10;;;6.50;;
15679;SDS011;15488;48.114;11.532;2022-07-23T01:00:43;6.77;;;6.17;;
15679;SDS011;15488;48.114;11.532;2022-07-23T01:03:11;6.30;;;5.77;;
15679;SDS011;15488;48.114;11.532;2022-07-23T01:05:38;6.63;;;6.03;;
15679;SDS011;15488;48.114;11.532;2022-07-23T01:08:07;6.80;;;6.20;;
15679;SDS011;15488;48.114;11.532;2022-07-23T01:10:34;6.70;;;6.10;;
15679;SDS011;15488;48.114;11.532;2022-07-23T01:13:03;7.20;;;6.20;;
15679;SDS011;15488;48.114;11.532;2022-07-23T01:15:32;7.33;;;6.63;;
15679;SDS011;15488;48.114;11.532;2022-07-23T01:18:01;7.90;;;7.20;;
15679;SDS011;15488;48.114;11.532;2022-07-23T01:20:29;8.20;;;7.20;;
15679;SDS011;15488;48.114;11.532;2022-07-23T01:22:58;8.43;;;7.63;;
15679;SDS011;15488;48.114;11.532;2022-07-23T01:25:26;9.07;;;6.70;;
15679;SDS011;15488;48.114;11.532;2022-07-23T01:27:53;7.97;;;6.60;;
15679;SDS011;15488;48.114;11.532;2022-07-23T01:30:21;7.87;;;6.23;;
15679;SDS011;15488;48.114;11.532;2022-07-23T01:32:49;7.13;;;6.43;;
15679;SDS011;15488;48.114;11.532;2022-07-23T01:35:16;7.80;;;5.27;;
15679;SDS011;15488;48.114;11.532;2022-07-23T01:37:44;6.40;;;5.00;;
15679;SDS011;15488;48.114;11.532;2022-07-23T01:40:13;8.00;;;5.10;;
15679;SDS011;15488;48.114;11.532;2022-07-23T01:42:40;7.20;;;6.20;;
15679;SDS011;15488;48.114;11.532;2022-07-23T01:45:08;6.00;;;5.20;;
15679;SDS011;15488;48.114;11.532;2022-07-23T01:47:36;6.10;;;5.50;;
15679;SDS011;15488;48.114;11.532;2022-07-23T01:50:04;6.03;;;5.43;;
15679;SDS011;15488;48.114;11.532;2022-07-23T01:52:32;6.27;;;5.67;;
15679;SDS011;15488;48.114;11.532;2022-07-23T01:54:59;6.70;;;6.10;;
15679;SDS011;15488;48.114;11.532;2022-07-23T01:57:28;6.60;;;6.00;;
15679;SDS011;15488;48.114;11.532;2022-07-23T01:59:55;6.43;;;5.83;;
15679;SDS011;15488;48.114;11.532;2022-07-23T02:02:23;7.13;;;6.43;;
15679;SDS011;15488;48.114;11.532;2022-07-23T02:04:50;6.30;;;5.70;;
15679;SDS011;15488;48.114;11.532;2022-07-23T02:07:18;7.50;;;6.20;;
15679;SDS011;15488;48.114;11.532;2022-07-23T02:09:45;6.70;;;6.00;;
15679;SDS011;15488;48.114;11.532;2022-07-23T02:12:13;6.00;;;5.40;;
15679;SDS011;15488;48.114;11.532;2022-07-23T02:14:41;6.47;;;5.13;;
15679;SDS011;15488;48.114;11.532;2022-07-23T02:17:09;5.97;;;5.47;;
15679;SDS011;15488;48.114;11.532;2022-07-23T02:19:36;5.80;;;5.30;;
15679;SDS011;15488;48.114;11.532;2022-07-23T02:22:04;5.53;;;4.70;;
15679;SDS011;15488;48.114;11.532;2022-07-23T02:24:31;5.40;;;4.90;;
15679;SDS011;15488;48.114;11.532;2022-07-23T02:26:59;4.40;;;4.00;;
15679;SDS011;15488;48.114;11.532;2022-07-23T02:29:26;4.00;;;3.60;;
15679;SDS011;15488;48.114;11.532;2022-07-23T02:31:55;3.67;;;3.20;;
15679;SDS011;15488;48.114;11.532;2022-07-23T02:34:22;3.80;;;3.33;;
15679;SDS011;15488;48.114;11.532;2022-07-23T02:36:50;4.47;;;3.70;;
15679;SDS011;15488;48.114;11.532;2022-07-23T02:39:17;3.57;;;3.27;;
15679;SDS011;15488;48.114;11.532;2022-07-23T02:41:45;3.53;;;3.20;;
15679;SDS011;15488;48.114;11.532;2022-07-23T02:44:12;3.47;;;2.73;;
15679;SDS011;15488;48.114;11.532;2022-07-23T02:46:40;3.27;;;2.97;;
15679;SDS011;15488;48.114;11.532;2022-07-23T02:49:08;3.50;;;3.10;;
15679;SDS011;15488;48.114;11.532;2022-07-23T02:51:36;3.50;;;3.20;;
15679;SDS011;15488;48.114;11.532;2022-07-23T02:54:03;3.40;;;3.10;;
15679;SDS011;15488;48.114;11.532;2022-07-23T02:56:31;2.80;;;2.60;;
15679;SDS011;15488;48.114;11.532;2022-07-23T02:58:58;3.97;;;3.57;;
15679;SDS011;15488;48.114;11.532;2022-07-23T03:01:26;3.37;;;3.00;;
15679;SDS011;15488;48.114;11.532;2022-07-23T03:03:53;3.80;;;3.40;;
15679;SDS011;15488;48.114;11.532;2022-07-23T03:06:22;4.43;;;3.70;;
15679;SDS011;15488;48.114;11.532;2022-07-23T03:08:49;4.13;;;3.57;;
15679;SDS011;15488;48.114;11.532;2022-07-23T03:11:17;4.27;;;3.93;;
15679;SDS011;15488;48.114;11.532;2022-07-23T03:13:45;4.33;;;3.93;;
15679;SDS011;15488;48.114;11.532;2022-07-23T03:16:12;4.27;;;3.77;;
15679;SDS011;15488;48.114;11.532;2022-07-23T03:18:40;4.27;;;3.87;;
15679;SDS011;15488;48.114;11.532;2022-07-23T03:21:07;4.20;;;3.70;;
15679;SDS011;15488;48.114;11.532;2022-07-23T03:23:36;4.40;;;4.00;;
15679;SDS011;15488;48.114;11.532;2022-07-23T03:26:04;5.33;;;4.23;;
15679;SDS011;15488;48.114;11.532;2022-07-23T03:28:32;4.70;;;4.30;;
15679;SDS011;15488;48.114;11.532;2022-07-23T03:30:59;4.60;;;4.20;;
15679;SDS011;15488;48.114;11.532;2022-07-23T03:33:27;4.87;;;4.10;;
15679;SDS011;15488;48.114;11.532;2022-07-23T03:35:54;4.70;;;4.30;;
15679;SDS011;15488;48.114;11.532;2022-07-23T03:38:21;5.20;;;4.70;;
15679;SDS011;15488;48.114;11.532;2022-07-23T03:40:50;5.30;;;4.90;;
15679;SDS011;15488;48.114;11.532;2022-07-23T03:43:18;5.30;;;4.80;;
15679;SDS011;15488;48.114;11.532;2022-07-23T03:45:45;4.80;;;4.30;;
15679;SDS011;15488;48.114;11.532;2022-07-23T03:48:13;4.70;;;4.30;;
15679;SDS011;15488;48.114;11.532;2022-07-23T03:50:40;5.27;;;4.77;;
15679;SDS011;15488;48.114;11.532;2022-07-23T03:53:08;5.10;;;4.60;;
15679;SDS011;15488;48.114;11.532;2022-07-23T03:55:35;5.13;;;4.60;;
15679;SDS011;15488;48.114;11.532;2022-07-23T03:58:04;4.77;;;4.37;;
15679;SDS011;15488;48.114;11.532;2022-07-23T04:00:31;5.03;;;4.63;;
15679;SDS011;15488;48.114;11.532;2022-07-23T04:02:59;5.13;;;4.63;;
15679;SDS011;15488;48.114;11.532;2022-07-23T04:05:26;4.90;;;4.40;;
15679;SDS011;15488;48.114;11.532;2022-07-23T04:07:54;5.00;;;4.50;;
15679;SDS011;15488;48.114;11.532;2022-07-23T04:10:21;4.87;;;4.47;;
15679;SDS011;15488;48.114;11.532;2022-07-23T04:12:48;5.03;;;4.60;;
15679;SDS011;15488;48.114;11.532;2022-07-23T04:15:17;4.90;;;4.50;;
15679;SDS011;15488;48.114;11.532;2022-07-23T04:17:45;4.90;;;4.43;;
15679;SDS011;15488;48.114;11.532;2022-07-23T04:20:12;4.67;;;4.27;;
15679;SDS011;15488;48.114;11.532;2022-07-23T04:22:40;4.87;;;4.47;;
15679;SDS011;15488;48.114;11.532;2022-07-23T04:25:07;5.13;;;4.63;;
15679;SDS011;15488;48.114;11.532;2022-07-23T04:27:35;5.13;;;4.73;;
15679;SDS011;15488;48.114;11.532;2022-07-23T04:30:03;5.40;;;4.90;;
15679;SDS011;15488;48.114;11.532;2022-07-23T04:32:32;5.10;;;4.70;;
15679;SDS011;15488;48.114;11.532;2022-07-23T04:35:00;5.10;;;4.70;;
15679;SDS011;15488;48.114;11.532;2022-07-23T04:37:27;5.33;;;4.83;;
15679;SDS011;15488;48.114;11.532;2022-07-23T04:39:55;5.07;;;4.67;;
15679;SDS011;15488;48.114;11.532;2022-07-23T04:42:22;5.63;;;5.10;;
15679;SDS011;15488;48.114;11.532;2022-07-23T04:44:49;5.07;;;4.60;;
15679;SDS011;15488;48.114;11.532;2022-07-23T04:47:17;5.40;;;4.90;;
15679;SDS011;15488;48.114;11.532;2022-07-23T04:49:46;6.13;;;5.53;;
15679;SDS011;15488;48.114;11.532;2022-07-23T04:52:13;5.60;;;5.10;;
15679;SDS011;15488;48.114;11.532;2022-07-23T04:54:41;5.80;;;5.30;;
15679;SDS011;15488;48.114;11.532;2022-07-23T04:57:08;5.70;;;5.20;;
15679;SDS011;15488;48.114;11.532;2022-07-23T04:59:36;5.13;;;4.70;;
15679;SDS011;15488;48.114;11.532;2022-07-23T05:02:03;5.93;;;5.17;;
15679;SDS011;15488;48.114;11.532;2022-07-23T05:04:30;5.77;;;5.17;;
15679;SDS011;15488;48.114;11.532;2022-07-23T05:06:59;5.57;;;5.07;;
15679;SDS011;15488;48.114;11.532;2022-07-23T05:09:27;5.43;;;4.93;;
15679;SDS011;15488;48.114;11.532;2022-07-23T05:11:54;6.20;;;5.60;;
15679;SDS011;15488;48.114;11.532;2022-07-23T05:14:22;5.73;;;5.17;;
15679;SDS011;15488;48.114;11.532;2022-07-23T05:16:49;5.50;;;5.00;;
15679;SDS011;15488;48.114;11.532;2022-07-23T05:19:17;5.63;;;5.13;;
15679;SDS011;15488;48.114;11.532;2022-07-23T05:21:44;5.30;;;4.90;;
15679;SDS011;15488;48.114;11.532;2022-07-23T05:24:13;5.80;;;5.30;;
15679;SDS011;15488;48.114;11.532;2022-07-23T05:26:40;5.53;;;5.03;;
15679;SDS011;15488;48.114;11.532;2022-07-23T05:29:08;5.47;;;4.97;;
15679;SDS011;15488;48.114;11.532;2022-07-23T05:31:35;6.30;;;5.27;;
15679;SDS011;15488;48.114;11.532;2022-07-23T05:34:03;6.07;;;5.50;;
15679;SDS011;15488;48.114;11.532;2022-07-23T05:36:30;5.97;;;5.37;;
15679;SDS011;15488;48.114;11.532;2022-07-23T05:38:58;6.10;;;5.50;;
15679;SDS011;15488;48.114;11.532;2022-07-23T05:41:27;5.97;;;5.30;;
15679;SDS011;15488;48.114;11.532;2022-07-23T05:43:54;5.70;;;5.20;;
15679;SDS011;15488;48.114;11.532;2022-07-23T05:46:22;5.57;;;5.07;;
15679;SDS011;15488;48.114;11.532;2022-07-23T05:48:49;8.47;;;7.67;;
15679;SDS011;15488;48.114;11.532;2022-07-23T05:51:20;9.67;;;8.57;;
15679;SDS011;15488;48.114;11.532;2022-07-23T05:53:48;8.20;;;7.50;;
15679;SDS011;15488;48.114;11.532;2022-07-23T05:56:18;6.33;;;5.77;;
15679;SDS011;15488;48.114;11.532;2022-07-23T05:58:47;7.70;;;7.00;;
15679;SDS011;15488;48.114;11.532;2022-07-23T06:01:14;6.20;;;5.70;;
15679;SDS011;15488;48.114;11.532;2022-07-23T06:03:42;7.23;;;6.20;;
15679;SDS011;15488;48.114;11.532;2022-07-23T06:06:09;8.40;;;6.47;;
15679;SDS011;15488;48.114;11.532;2022-07-23T06:08:37;6.80;;;6.20;;
15679;SDS011;15488;48.114;11.532;2022-07-23T06:11:04;6.93;;;6.30;;
15679;SDS011;15488;48.114;11.532;2022-07-23T06:13:32;5.90;;;5.40;;
15679;SDS011;15488;48.114;11.532;2022-07-23T06:16:01;7.53;;;5.97;;
15679;SDS011;15488;48.114;11.532;2022-07-23T06:18:28;6.50;;;5.73;;
15679;SDS011;15488;48.114;11.532;2022-07-23T06:20:55;8.43;;;5.90;;
15679;SDS011;15488;48.114;11.532;2022-07-23T06:23:23;6.33;;;5.73;;
15679;SDS011;15488;48.114;11.532;2022-07-23T06:25:51;6.73;;;6.00;;
15679;SDS011;15488;48.114;11.532;2022-07-23T06:28:18;7.40;;;6.07;;
15679;SDS011;15488;48.114;11.532;2022-07-23T06:30:46;6.00;;;5.40;;
15679;SDS011;15488;48.114;11.532;2022-07-23T06:33:15;6.13;;;5.63;;
15679;SDS011;15488;48.114;11.532;2022-07-23T06:35:42;6.40;;;5.80;;
15679;SDS011;15488;48.114;11.532;2022-07-23T06:38:09;6.43;;;5.83;;
15679;SDS011;15488;48.114;11.532;2022-07-23T06:40:38;6.77;;;6.17;;
15679;SDS011;15488;48.114;11.532;2022-07-23T06:43:05;7.03;;;6.33;;
15679;SDS011;15488;48.114;11.532;2022-07-23T06:45:32;7.00;;;5.40;;
15679;SDS011;15488;48.114;11.532;2022-07-23T06:48:00;6.27;;;5.67;;
15679;SDS011;15488;48.114;11.532;2022-07-23T06:50:29;6.57;;;5.90;;
15679;SDS011;15488;48.114;11.532;2022-07-23T06:52:56;6.10;;;5.53;;
15679;SDS011;15488;48.114;11.532;2022-07-23T06:55:24;6.77;;;6.17;;
15679;SDS011;15488;48.114;11.532;2022-07-23T06:57:51;6.60;;;6.00;;
15679;SDS011;15488;48.114;11.532;2022-07-23T07:00:19;7.03;;;5.80;;
15679;SDS011;15488;48.114;11.532;2022-07-23T07:02:46;7.00;;;6.30;;
15679;SDS011;15488;48.114;11.532;2022-07-23T07:05:14;6.67;;;6.07;;
15679;SDS011;15488;48.114;11.532;2022-07-23T07:07:43;7.27;;;6.57;;
15679;SDS011;15488;48.114;11.532;2022-07-23T07:10:10;6.50;;;5.90;;
15679;SDS011;15488;48.114;11.532;2022-07-23T07:12:37;7.00;;;6.40;;
15679;SDS011;15488;48.114;11.532;2022-07-23T07:15:05;6.40;;;5.90;;
15679;SDS011;15488;48.114;11.532;2022-07-23T07:17:33;6.53;;;5.93;;
15679;SDS011;15488;48.114;11.532;2022-07-23T07:20:00;6.83;;;6.23;;
15679;SDS011;15488;48.114;11.532;2022-07-23T07:22:28;7.03;;;6.43;;
15679;SDS011;15488;48.114;11.532;2022-07-23T07:24:57;7.37;;;6.67;;
15679;SDS011;15488;48.114;11.532;2022-07-23T07:27:24;6.80;;;6.20;;
15679;SDS011;15488;48.114;11.532;2022-07-23T07:29:52;7.03;;;6.43;;
15679;SDS011;15488;48.114;11.532;2022-07-23T07:32:19;7.00;;;6.37;;
15679;SDS011;15488;48.114;11.532;2022-07-23T07:34:47;7.53;;;6.83;;
15679;SDS011;15488;48.114;11.532;2022-07-23T07:37:14;7.50;;;6.40;;
15679;SDS011;15488;48.114;11.532;2022-07-23T07:39:42;7.67;;;6.90;;
15679;SDS011;15488;48.114;11.532;2022-07-23T07:42:10;7.37;;;6.73;;
15679;SDS011;15488;48.114;11.532;2022-07-23T07:44:38;7.23;;;6.00;;
15679;SDS011;15488;48.114;11.532;2022-07-23T07:47:05;8.53;;;7.40;;
15679;SDS011;15488;48.114;11.532;2022-07-23T07:49:33;7.87;;;6.83;;
15679;SDS011;15488;48.114;11.532;2022-07-23T07:52:00;7.03;;;6.33;;
15679;SDS011;15488;48.114;11.532;2022-07-23T07:54:28;6.93;;;6.33;;
15679;SDS011;15488;48.114;11.532;2022-07-23T07:56:55;7.60;;;6.90;;
15679;SDS011;15488;48.114;11.532;2022-07-23T07:59:24;7.47;;;6.77;;
15679;SDS011;15488;48.114;11.532;2022-07-23T08:01:51;7.50;;;6.80;;
15679;SDS011;15488;48.114;11.532;2022-07-23T08:04:19;6.87;;;6.00;;
15679;SDS011;15488;48.114;11.532;2022-07-23T08:06:47;6.83;;;6.23;;
15679;SDS011;15488;48.114;11.532;2022-07-23T08:09:14;7.03;;;6.37;;
15679;SDS011;15488;48.114;11.532;2022-07-23T08:11:41;7.47;;;6.80;;
15679;SDS011;15488;48.114;11.532;2022-07-23T08:14:09;7.47;;;6.77;;
15679;SDS011;15488;48.114;11.532;2022-07-23T08:16:38;7.40;;;6.63;;
15679;SDS011;15488;48.114;11.532;2022-07-23T08:19:05;7.40;;;6.70;;
15679;SDS011;15488;48.114;11.532;2022-07-23T08:21:33;6.73;;;6.13;;
15679;SDS011;15488;48.114;11.532;2022-07-23T08:24:00;6.57;;;5.97;;
15679;SDS011;15488;48.114;11.532;2022-07-23T08:26:28;6.97;;;6.37;;
15679;SDS011;15488;48.114;11.532;2022-07-23T08:28:55;6.73;;;6.13;;
15679;SDS011;15488;48.114;11.532;2022-07-23T08:31:23;6.40;;;5.90;;
15679;SDS011;15488;48.114;11.532;2022-07-23T08:33:52;6.57;;;5.97;;
15679;SDS011;15488;48.114;11.532;2022-07-23T08:36:20;6.53;;;6.00;;
15679;SDS011;15488;48.114;11.532;2022-07-23T08:38:47;6.73;;;6.13;;
15679;SDS011;15488;48.114;11.532;2022-07-23T08:41:15;6.90;;;6.20;;
15679;SDS011;15488;48.114;11.532;2022-07-23T08:43:43;6.87;;;6.27;;
15679;SDS011;15488;48.114;11.532;2022-07-23T08:46:11;6.97;;;6.30;;
15679;SDS011;15488;48.114;11.532;2022-07-23T08:48:40;7.00;;;6.40;;
15679;SDS011;15488;48.114;11.532;2022-07-23T08:51:09;6.73;;;6.13;;
15679;SDS011;15488;48.114;11.532;2022-07-23T08:53:36;7.20;;;6.50;;
15679;SDS011;15488;48.114;11.532;2022-07-23T08:56:05;6.47;;;5.87;;
15679;SDS011;15488;48.114;11.532;2022-07-23T08:58:33;6.40;;;5.90;;
15679;SDS011;15488;48.114;11.532;2022-07-23T09:01:01;6.30;;;5.70;;
15679;SDS011;15488;48.114;11.532;2022-07-23T09:03:30;6.93;;;6.23;;
15679;SDS011;15488;48.114;11.532;2022-07-23T09:05:59;6.90;;;6.27;;
15679;SDS011;15488;48.114;11.532;2022-07-23T09:08:35;6.80;;;6.20;;
15679;SDS011;15488;48.114;11.532;2022-07-23T09:11:04;7.00;;;6.30;;
15679;SDS011;15488;48.114;11.532;2022-07-23T09:13:34;6.27;;;5.77;;
15679;SDS011;15488;48.114;11.532;2022-07-23T09:16:05;6.67;;;6.03;;
15679;SDS011;15488;48.114;11.532;2022-07-23T09:18:35;6.53;;;5.83;;
15679;SDS011;15488;48.114;11.532;2022-07-23T09:21:13;7.30;;;6.70;;
15679;SDS011;15488;48.114;11.532;2022-07-23T09:23:48;6.53;;;6.00;;
15679;SDS011;15488;48.114;11.532;2022-07-23T09:26:21;6.63;;;6.03;;
15679;SDS011;15488;48.114;11.532;2022-07-23T09:29:08;6.33;;;5.83;;
15679;SDS011;15488;48.114;11.532;2022-07-23T09:31:44;6.80;;;6.10;;
15679;SDS011;15488;48.114;11.532;2022-07-23T09:34:14;6.00;;;5.50;;
15679;SDS011;15488;48.114;11.532;2022-07-23T09:36:44;6.60;;;6.00;;
15679;SDS011;15488;48.114;11.532;2022-07-23T09:39:14;6.70;;;6.10;;
15679;SDS011;15488;48.114;11.532;2022-07-23T09:41:50;6.63;;;5.90;;
15679;SDS011;15488;48.114;11.532;2022-07-23T09:44:18;6.80;;;6.20;;
15679;SDS011;15488;48.114;11.532;2022-07-23T09:46:47;7.10;;;6.40;;
15679;SDS011;15488;48.114;11.532;2022-07-23T09:49:17;6.55;;;5.80;;
15679;SDS011;15488;48.114;11.532;2022-07-23T09:51:49;6.20;;;5.60;;
15679;SDS011;15488;48.114;11.532;2022-07-23T09:54:27;6.03;;;5.40;;
15679;SDS011;15488;48.114;11.532;2022-07-23T09:57:01;5.90;;;5.40;;
15679;SDS011;15488;48.114;11.532;2022-07-23T09:59:32;6.22;;;5.63;;
15679;SDS011;15488;48.114;11.532;2022-07-23T10:02:01;5.95;;;5.45;;
15679;SDS011;15488;48.114;11.532;2022-07-23T10:04:31;5.70;;;5.00;;
15679;SDS011;15488;48.114;11.532;2022-07-23T10:07:00;5.47;;;4.97;;
15679;SDS011;15488;48.114;11.532;2022-07-23T10:09:32;5.65;;;5.15;;
15679;SDS011;15488;48.114;11.532;2022-07-23T10:12:02;5.85;;;5.35;;
15679;SDS011;15488;48.114;11.532;2022-07-23T10:14:36;6.38;;;5.35;;
15679;SDS011;15488;48.114;11.532;2022-07-23T10:17:05;5.68;;;5.18;;
15679;SDS011;15488;48.114;11.532;2022-07-23T10:19:33;5.78;;;5.22;;
15679;SDS011;15488;48.114;11.532;2022-07-23T10:22:02;5.53;;;5.03;;
15679;SDS011;15488;48.114;11.532;2022-07-23T10:24:41;5.82;;;5.03;;
15679;SDS011;15488;48.114;11.532;2022-07-23T10:27:20;5.77;;;5.27;;
15679;SDS011;15488;48.114;11.532;2022-07-23T10:30:04;5.78;;;5.28;;
15679;SDS011;15488;48.114;11.532;2022-07-23T10:32:37;6.35;;;5.10;;
15679;SDS011;15488;48.114;11.532;2022-07-23T10:35:13;5.22;;;4.82;;
15679;SDS011;15488;48.114;11.532;2022-07-23T10:37:51;6.20;;;5.70;;
15679;SDS011;15488;48.114;11.532;2022-07-23T10:40:23;5.38;;;4.97;;
15679;SDS011;15488;48.114;11.532;2022-07-23T10:42:52;5.63;;;5.10;;
15679;SDS011;15488;48.114;11.532;2022-07-23T10:45:25;5.63;;;5.13;;
15679;SDS011;15488;48.114;11.532;2022-07-23T10:47:54;5.55;;;5.05;;
15679;SDS011;15488;48.114;11.532;2022-07-23T10:50:23;5.80;;;5.10;;
15679;SDS011;15488;48.114;11.532;2022-07-23T10:53:11;5.78;;;5.28;;
15679;SDS011;15488;48.114;11.532;2022-07-23T10:55:51;6.35;;;5.70;;
15679;SDS011;15488;48.114;11.532;2022-07-23T10:58:25;5.80;;;5.30;;
15679;SDS011;15488;48.114;11.532;2022-07-23T11:01:33;6.05;;;5.32;;
15679;SDS011;15488;48.114;11.532;2022-07-23T11:04:02;5.93;;;5.32;;
15679;SDS011;15488;48.114;11.532;2022-07-23T11:09:38;6.38;;;5.72;;
15679;SDS011;15488;48.114;11.532;2022-07-23T11:15:02;6.53;;;5.55;;
15679;SDS011;15488;48.114;11.532;2022-07-23T11:17:33;5.82;;;5.32;;
15679;SDS011;15488;48.114;11.532;2022-07-23T11:22:50;5.97;;;5.47;;
15679;SDS011;15488;48.114;11.532;2022-07-23T11:25:34;5.75;;;5.25;;
15679;SDS011;15488;48.114;11.532;2022-07-23T11:28:10;5.57;;;5.10;;
15679;SDS011;15488;48.114;11.532;2022-07-23T11:30:40;6.30;;;5.30;;
15679;SDS011;15488;48.114;11.532;2022-07-23T11:33:16;6.13;;;5.63;;
15679;SDS011;15488;48.114;11.532;2022-07-23T11:35:48;6.55;;;5.90;;
15679;SDS011;15488;48.114;11.532;2022-07-23T11:38:27;6.03;;;5.45;;
15679;SDS011;15488;48.114;11.532;2022-07-23T11:40:56;7.07;;;5.97;;
15679;SDS011;15488;48.114;11.532;2022-07-23T11:43:25;6.65;;;6.05;;
15679;SDS011;15488;48.114;11.532;2022-07-23T11:45:53;6.20;;;5.60;;
15679;SDS011;15488;48.114;11.532;2022-07-23T11:48:24;7.20;;;6.50;;
15679;SDS011;15488;48.114;11.532;2022-07-23T11:50:53;6.40;;;5.80;;
15679;SDS011;15488;48.114;11.532;2022-07-23T11:53:22;7.60;;;6.00;;
15679;SDS011;15488;48.114;11.532;2022-07-23T11:55:50;6.68;;;5.85;;
15679;SDS011;15488;48.114;11.532;2022-07-23T11:58:19;6.80;;;6.20;;
15679;SDS011;15488;48.114;11.532;2022-07-23T12:00:48;7.60;;;6.00;;
15679;SDS011;15488;48.114;11.532;2022-07-23T12:03:17;6.78;;;6.18;;
15679;SDS011;15488;48.114;11.532;2022-07-23T12:05:45;6.60;;;6.00;;
15679;SDS011;15488;48.114;11.532;2022-07-23T12:08:13;7.50;;;6.70;;
15679;SDS011;15488;48.114;11.532;2022-07-23T12:10:41;7.22;;;6.25;;
15679;SDS011;15488;48.114;11.532;2022-07-23T12:13:10;6.13;;;5.60;;
15679;SDS011;15488;48.114;11.532;2022-07-23T12:15:39;6.85;;;6.22;;
15679;SDS011;15488;48.114;11.532;2022-07-23T12:18:10;7.28;;;6.28;;
15679;SDS011;15488;48.114;11.532;2022-07-23T12:20:39;6.65;;;5.78;;
15679;SDS011;15488;48.114;11.532;2022-07-23T12:23:09;6.60;;;6.00;;
15679;SDS011;15488;48.114;11.532;2022-07-23T12:25:37;7.00;;;6.07;;
15679;SDS011;15488;48.114;11.532;2022-07-23T12:28:07;6.28;;;5.78;;
15679;SDS011;15488;48.114;11.532;2022-07-23T12:30:37;6.50;;;5.93;;
15679;SDS011;15488;48.114;11.532;2022-07-23T12:33:07;6.40;;;5.80;;
15679;SDS011;15488;48.114;11.532;2022-07-23T12:35:36;6.47;;;5.97;;
15679;SDS011;15488;48.114;11.532;2022-07-23T12:38:07;6.93;;;6.33;;
15679;SDS011;15488;48.114;11.532;2022-07-23T12:40:36;6.75;;;6.15;;
15679;SDS011;15488;48.114;11.532;2022-07-23T12:43:09;6.78;;;6.18;;
15679;SDS011;15488;48.114;11.532;2022-07-23T12:45:41;7.43;;;6.70;;
15679;SDS011;15488;48.114;11.532;2022-07-23T12:48:22;7.53;;;6.83;;
15679;SDS011;15488;48.114;11.532;2022-07-23T12:50:55;6.78;;;6.18;;
15679;SDS011;15488;48.114;11.532;2022-07-23T12:53:25;6.63;;;6.03;;
15679;SDS011;15488;48.114;11.532;2022-07-23T12:55:57;6.65;;;5.97;;
15679;SDS011;15488;48.114;11.532;2022-07-23T12:58:39;6.65;;;5.95;;
15679;SDS011;15488;48.114;11.532;2022-07-23T13:01:09;6.55;;;5.95;;
15679;SDS011;15488;48.114;11.532;2022-07-23T13:03:56;6.50;;;5.95;;
15679;SDS011;15488;48.114;11.532;2022-07-23T13:06:25;6.10;;;5.53;;
15679;SDS011;15488;48.114;11.532;2022-07-23T13:08:54;6.40;;;5.80;;
15679;SDS011;15488;48.114;11.532;2022-07-23T13:11:21;6.05;;;5.55;;
15679;SDS011;15488;48.114;11.532;2022-07-23T13:13:49;7.20;;;6.60;;
15679;SDS011;15488;48.114;11.532;2022-07-23T13:16:17;6.30;;;5.70;;
15679;SDS011;15488;48.114;11.532;2022-07-23T13:18:44;6.40;;;5.80;;
15679;SDS011;15488;48.114;11.532;2022-07-23T13:21:13;6.15;;;5.57;;
15679;SDS011;15488;48.114;11.532;2022-07-23T13:23:41;6.97;;;6.28;;
15679;SDS011;15488;48.114;11.532;2022-07-23T13:26:09;6.82;;;6.20;;
15679;SDS011;15488;48.114;11.532;2022-07-23T13:28:36;7.22;;;6.60;;
15679;SDS011;15488;48.114;11.532;2022-07-23T13:31:04;7.00;;;6.30;;
15679;SDS011;15488;48.114;11.532;2022-07-23T13:33:32;7.72;;;7.05;;
15679;SDS011;15488;48.114;11.532;2022-07-23T13:36:00;7.00;;;6.40;;
15679;SDS011;15488;48.114;11.532;2022-07-23T13:38:30;7.15;;;6.45;;
15679;SDS011;15488;48.114;11.532;2022-07-23T13:40:57;6.63;;;6.03;;
15679;SDS011;15488;48.114;11.532;2022-07-23T13:43:25;6.90;;;5.93;;
15679;SDS011;15488;48.114;11.532;2022-07-23T13:45:52;6.97;;;6.38;;
15679;SDS011;15488;48.114;11.532;2022-07-23T13:48:20;6.20;;;5.60;;
15679;SDS011;15488;48.114;11.532;2022-07-23T13:50:48;7.05;;;6.45;;
15679;SDS011;15488;48.114;11.532;2022-07-23T13:53:17;6.10;;;5.60;;
15679;SDS011;15488;48.114;11.532;2022-07-23T13:55:47;6.93;;;6.22;;
15679;SDS011;15488;48.114;11.532;2022-07-23T13:58:16;7.60;;;6.60;;
15679;SDS011;15488;48.114;11.532;2022-07-23T14:00:45;6.20;;;5.70;;
15679;SDS011;15488;48.114;11.532;2022-07-23T14:03:15;6.35;;;5.75;;
15679;SDS011;15488;48.114;11.532;2022-07-23T14:05:43;6.60;;;6.03;;
15679;SDS011;15488;48.114;11.532;2022-07-23T14:08:11;6.55;;;5.95;;
15679;SDS011;15488;48.114;11.532;2022-07-23T14:10:38;7.10;;;6.50;;
15679;SDS011;15488;48.114;11.532;2022-07-23T14:13:07;7.00;;;6.35;;
15679;SDS011;15488;48.114;11.532;2022-07-23T14:15:35;7.13;;;6.22;;
15679;SDS011;15488;48.114;11.532;2022-07-23T14:18:05;6.75;;;6.05;;
15679;SDS011;15488;48.114;11.532;2022-07-23T14:20:33;6.45;;;5.85;;
15679;SDS011;15488;48.114;11.532;2022-07-23T14:23:00;8.07;;;7.28;;
15679;SDS011;15488;48.114;11.532;2022-07-23T14:25:28;7.22;;;6.47;;
15679;SDS011;15488;48.114;11.532;2022-07-23T14:27:55;6.85;;;6.13;;
15679;SDS011;15488;48.114;11.532;2022-07-23T14:30:24;6.35;;;5.75;;
15679;SDS011;15488;48.114;11.532;2022-07-23T14:32:52;6.40;;;5.80;;
15679;SDS011;15488;48.114;11.532;2022-07-23T14:35:19;6.28;;;5.70;;
15679;SDS011;15488;48.114;11.532;2022-07-23T14:37:48;6.80;;;6.20;;
15679;SDS011;15488;48.114;11.532;2022-07-23T14:40:16;6.40;;;5.80;;
15679;SDS011;15488;48.114;11.532;2022-07-23T14:42:43;6.27;;;5.70;;
15679;SDS011;15488;48.114;11.532;2022-07-23T14:45:11;6.90;;;6.20;;
15679;SDS011;15488;48.114;11.532;2022-07-23T14:47:39;7.83;;;6.17;;
15679;SDS011;15488;48.114;11.532;2022-07-23T14:50:07;6.63;;;6.03;;
15679;SDS011;15488;48.114;11.532;2022-07-23T14:52:35;6.75;;;6.25;;